Time;durP1;ratioP1;P1;durP2;ratioP2;P2;SDS_P1;SDS_P2;PMS_P1;PMS_P2;Temp;Humidity;BMP_temperature;BMP_pressure;BME280_temperature;BME280_humidity;BME280_pressure;Samples;Min_cycle;Max_cycle;Signal;HPM_P1;HPM_P2
2022/11/24 00:01:25;;;;;;;4.50;1.20;;;10.00;82.40;;;;;;5006032;28;20026;-61
2022/11/24 00:04:00;;;;;;;4.57;1.27;;;10.00;82.60;;;;;;5009374;28;20030;-62
2022/11/24 00:06:27;;;;;;;6.28;2.03;;;10.00;82.70;;;;;;5011812;28;20057;-62
2022/11/24 00:08:53;;;;;;;8.73;2.22;;;10.00;82.70;;;;;;5010403;28;20139;-61
2022/11/24 00:11:24;;;;;;;7.47;1.77;;;10.00;82.70;;;;;;4997912;28;20034;-60
2022/11/24 00:13:50;;;;;;;2.58;1.60;;;10.00;82.60;;;;;;5004208;28;20175;-62
2022/11/24 00:16:21;;;;;;;6.13;1.92;;;10.00;82.60;;;;;;5000793;28;20034;-61
2022/11/24 00:18:48;;;;;;;3.65;1.20;;;10.00;82.60;;;;;;5004582;28;20393;-60
2022/11/24 00:21:15;;;;;;;1.92;1.40;;;10.00;82.60;;;;;;5004522;28;20485;-60
2022/11/24 00:23:41;;;;;;;4.15;1.30;;;10.00;82.50;;;;;;5010183;28;20057;-60
2022/11/24 00:26:12;;;;;;;4.22;1.17;;;10.00;82.60;;;;;;5011568;28;20212;-60
2022/11/24 00:28:39;;;;;;;5.43;2.28;;;10.00;82.50;;;;;;5008559;28;20033;-60
2022/11/24 00:31:19;;;;;;;4.07;1.52;;;10.10;82.40;;;;;;5008738;28;20042;-61
2022/11/24 00:33:46;;;;;;;1.90;1.40;;;10.00;82.90;;;;;;4992812;28;20079;-60
2022/11/24 00:36:12;;;;;;;9.68;2.70;;;10.00;82.40;;;;;;5002419;28;20026;-60
2022/11/24 00:38:38;;;;;;;2.95;1.90;;;10.00;82.70;;;;;;4994908;28;20023;-61
2022/11/24 00:41:04;;;;;;;6.05;1.70;;;10.00;82.80;;;;;;5002276;28;20401;-61
2022/11/24 00:43:29;;;;;;;4.57;1.52;;;10.00;82.70;;;;;;4992719;28;20023;-60
2022/11/24 00:45:55;;;;;;;6.88;1.58;;;10.00;82.70;;;;;;4987897;28;20045;-60
2022/11/24 00:48:21;;;;;;;2.35;1.67;;;10.00;82.50;;;;;;4992664;28;20049;-60
2022/11/24 00:51:02;;;;;;;4.65;1.35;;;10.00;82.40;;;;;;5005769;28;20122;-60
2022/11/24 00:53:28;;;;;;;7.22;1.60;;;10.10;82.40;;;;;;4991604;28;20027;-60
2022/11/24 00:55:54;;;;;;;1.23;1.02;;;10.00;82.50;;;;;;4998984;28;20035;-61
2022/11/24 00:58:21;;;;;;;7.18;1.60;;;10.00;82.60;;;;;;4993783;28;20033;-61
2022/11/24 01:00:47;;;;;;;7.07;1.90;;;10.00;82.60;;;;;;5000194;28;20034;-61
2022/11/24 01:03:13;;;;;;;5.63;1.40;;;10.00;82.60;;;;;;4992880;28;20397;-61
2022/11/24 01:05:39;;;;;;;3.45;1.77;;;10.00;82.70;;;;;;4999879;28;20507;-61
2022/11/24 01:08:05;;;;;;;7.68;1.27;;;10.00;82.40;;;;;;4994984;28;20026;-61
2022/11/24 01:10:32;;;;;;;3.97;1.50;;;10.00;82.30;;;;;;4992472;28;20042;-61
2022/11/24 01:12:58;;;;;;;2.92;1.50;;;10.00;82.30;;;;;;4993603;28;20021;-61
2022/11/24 01:15:24;;;;;;;2.05;1.15;;;10.00;82.40;;;;;;4994166;28;20041;-61
2022/11/24 01:17:50;;;;;;;3.38;1.50;;;10.00;82.40;;;;;;4991759;28;20377;-61
2022/11/24 01:20:16;;;;;;;3.20;1.40;;;10.10;82.40;;;;;;4993748;28;20051;-60
2022/11/24 01:22:42;;;;;;;2.45;1.50;;;10.00;82.20;;;;;;4983734;28;20424;-61
2022/11/24 01:25:10;;;;;;;2.65;1.25;;;10.10;82.20;;;;;;4994083;28;20033;-60
2022/11/24 01:27:36;;;;;;;6.03;1.38;;;10.10;82.10;;;;;;4996277;28;20049;-60
2022/11/24 01:30:03;;;;;;;11.23;2.00;;;10.10;82.10;;;;;;4998214;28;20038;-60
2022/11/24 01:32:31;;;;;;;5.70;1.80;;;10.10;82.00;;;;;;4998147;28;20026;-60
2022/11/24 01:34:56;;;;;;;2.95;1.33;;;10.10;81.90;;;;;;5008392;28;20389;-61
2022/11/24 01:37:22;;;;;;;1.73;0.90;;;10.10;81.90;;;;;;4992731;28;20034;-61
2022/11/24 01:39:48;;;;;;;3.53;1.38;;;10.10;81.90;;;;;;4992380;28;20416;-61
2022/11/24 01:42:13;;;;;;;3.08;0.90;;;10.10;82.60;;;;;;5009370;28;21423;-61
2022/11/24 01:44:41;;;;;;;9.20;1.40;;;10.10;81.90;;;;;;4999958;28;20084;-61
2022/11/24 01:47:25;;;;;;;2.92;1.30;;;10.00;81.90;;;;;;5001388;28;20084;-61
2022/11/24 01:49:55;;;;;;;2.80;1.00;;;10.00;82.00;;;;;;4994010;28;20041;-61
2022/11/24 01:52:37;;;;;;;2.80;1.90;;;10.00;81.90;;;;;;4999796;28;20034;-61
2022/11/24 01:55:08;;;;;;;5.93;1.95;;;10.10;81.90;;;;;;4993408;28;20029;-60
2022/11/24 01:57:59;;;;;;;8.30;1.23;;;10.00;81.80;;;;;;4998088;28;20022;-60
2022/11/24 02:00:25;;;;;;;7.70;1.83;;;10.00;81.90;;;;;;4999450;28;20042;-61
2022/11/24 02:02:52;;;;;;;9.32;1.92;;;10.00;81.90;;;;;;4989658;28;20089;-61
2022/11/24 02:05:23;;;;;;;1.90;1.02;;;10.00;82.00;;;;;;4985450;28;20030;-60
2022/11/24 02:07:51;;;;;;;2.40;0.93;;;9.90;82.00;;;;;;5009800;28;20101;-60
2022/11/24 02:10:17;;;;;;;2.97;1.15;;;9.90;82.00;;;;;;4997980;28;20282;-61
2022/11/24 02:12:46;;;;;;;3.78;1.33;;;9.90;82.10;;;;;;4996204;28;20441;-61
2022/11/24 02:15:15;;;;;;;5.70;1.58;;;9.90;82.20;;;;;;4993059;28;20026;-61
2022/11/24 02:17:41;;;;;;;3.50;1.45;;;9.90;82.20;;;;;;4990457;28;20504;-61
2022/11/24 02:20:10;;;;;;;5.88;1.67;;;9.90;82.20;;;;;;4995688;28;20026;-61
2022/11/24 02:22:50;;;;;;;3.28;1.55;;;9.90;82.20;;;;;;4994146;28;20037;-61
2022/11/24 02:25:18;;;;;;;3.40;1.48;;;9.90;82.10;;;;;;4997180;28;20109;-61
2022/11/24 02:27:44;;;;;;;3.50;1.17;;;10.00;82.10;;;;;;4996401;28;20041;-61
2022/11/24 02:30:10;;;;;;;11.43;1.67;;;10.00;82.10;;;;;;4995275;28;20038;-61
2022/11/24 02:32:40;;;;;;;3.63;1.13;;;10.00;82.10;;;;;;4992136;28;20509;-61
2022/11/24 02:35:07;;;;;;;4.35;1.48;;;10.00;82.10;;;;;;4993521;28;20256;-61
2022/11/24 02:37:32;;;;;;;3.72;1.48;;;10.00;82.00;;;;;;4990121;28;20038;-61
2022/11/24 02:39:58;;;;;;;3.72;1.10;;;10.00;81.90;;;;;;4995653;28;20030;-61
2022/11/24 02:42:27;;;;;;;4.20;0.90;;;10.00;81.80;;;;;;4991483;28;20058;-61
2022/11/24 02:44:56;;;;;;;4.00;1.73;;;10.00;81.90;;;;;;4994708;28;20097;-61
2022/11/24 02:47:22;;;;;;;7.65;1.65;;;10.00;81.90;;;;;;4990200;28;20038;-62
2022/11/24 02:49:48;;;;;;;2.75;1.15;;;10.00;81.90;;;;;;5003614;28;20041;-61
2022/11/24 02:52:13;;;;;;;7.53;1.33;;;10.00;81.90;;;;;;4992623;28;20034;-61
2022/11/24 02:54:39;;;;;;;5.70;1.27;;;10.00;81.90;;;;;;5006373;28;20029;-62
2022/11/24 02:57:05;;;;;;;1.80;1.33;;;10.00;81.90;;;;;;4997112;28;20045;-62
2022/11/24 02:59:30;;;;;;;1.58;1.08;;;10.00;81.90;;;;;;4998235;28;20485;-61
2022/11/24 03:01:56;;;;;;;1.55;1.05;;;10.00;81.80;;;;;;4996374;28;20502;-61
2022/11/24 03:04:22;;;;;;;3.67;1.85;;;9.90;81.80;;;;;;5005772;28;20452;-62
2022/11/24 03:06:47;;;;;;;3.28;1.02;;;9.90;81.90;;;;;;4993857;28;20033;-61
2022/11/24 03:09:13;;;;;;;2.50;1.00;;;9.80;81.90;;;;;;4992742;28;20030;-61
2022/11/24 03:11:39;;;;;;;3.53;1.27;;;9.80;82.00;;;;;;5000438;28;20499;-62
2022/11/24 03:14:05;;;;;;;3.47;0.95;;;9.80;82.10;;;;;;5006221;28;20026;-61
2022/11/24 03:16:32;;;;;;;5.45;1.80;;;9.70;82.10;;;;;;5009380;28;20113;-62
2022/11/24 03:18:58;;;;;;;11.43;1.75;;;9.70;82.10;;;;;;5005572;28;20493;-62
2022/11/24 03:21:23;;;;;;;7.43;1.58;;;9.70;82.20;;;;;;4991726;28;20073;-61
2022/11/24 03:23:50;;;;;;;3.47;0.77;;;9.70;82.40;;;;;;5002103;28;20062;-61
2022/11/24 03:26:18;;;;;;;2.78;1.20;;;9.70;82.40;;;;;;4994833;28;20035;-61
2022/11/24 03:28:43;;;;;;;3.88;1.10;;;9.60;82.40;;;;;;4996176;28;20069;-61
2022/11/24 03:31:10;;;;;;;2.63;1.08;;;9.60;82.40;;;;;;4990971;28;20066;-61
2022/11/24 03:33:36;;;;;;;1.98;1.48;;;9.60;82.40;;;;;;4990323;28;20040;-61
2022/11/24 03:36:03;;;;;;;4.40;1.77;;;9.60;82.40;;;;;;4991182;28;20111;-61
2022/11/24 03:38:29;;;;;;;8.30;1.83;;;9.70;82.30;;;;;;5000114;28;20045;-61
2022/11/24 03:40:54;;;;;;;4.25;1.45;;;9.60;82.20;;;;;;4995786;28;20038;-61
2022/11/24 03:43:20;;;;;;;5.13;1.27;;;9.70;82.30;;;;;;4991015;28;20038;-61
2022/11/24 03:45:47;;;;;;;6.07;1.65;;;9.70;82.30;;;;;;4990452;28;20082;-61
2022/11/24 03:48:14;;;;;;;3.25;1.23;;;9.80;82.20;;;;;;4992119;28;20072;-61
2022/11/24 03:50:39;;;;;;;2.83;1.33;;;9.80;82.10;;;;;;4995097;28;20031;-61
2022/11/24 03:53:05;;;;;;;2.17;0.85;;;9.80;82.10;;;;;;4997264;28;20077;-61
2022/11/24 03:55:30;;;;;;;7.60;1.58;;;9.80;82.10;;;;;;4982589;28;20034;-61
2022/11/24 03:57:56;;;;;;;5.07;1.40;;;9.80;82.10;;;;;;4992338;28;20077;-62
2022/11/24 04:00:22;;;;;;;4.25;1.38;;;9.80;82.10;;;;;;4996262;28;20030;-62
2022/11/24 04:02:47;;;;;;;5.97;1.33;;;9.80;82.10;;;;;;4992080;28;20034;-62
2022/11/24 04:05:14;;;;;;;9.18;1.35;;;9.80;82.20;;;;;;4989594;28;20100;-62
2022/11/24 04:07:39;;;;;;;3.30;1.58;;;9.80;82.20;;;;;;4991241;28;20022;-62
2022/11/24 04:10:06;;;;;;;5.03;1.65;;;9.80;82.10;;;;;;4991821;28;20493;-62
2022/11/24 04:12:43;;;;;;;8.18;2.35;;;9.80;82.20;;;;;;4991359;28;20485;-62
2022/11/24 04:15:11;;;;;;;3.20;1.98;;;9.80;82.20;;;;;;5022554;28;20033;-61
2022/11/24 04:17:37;;;;;;;10.38;2.17;;;9.80;82.10;;;;;;4991548;28;20031;-62
2022/11/24 04:20:04;;;;;;;5.85;1.75;;;9.80;82.20;;;;;;4991132;28;20041;-61
2022/11/24 04:22:31;;;;;;;4.38;1.00;;;9.80;82.30;;;;;;4994314;28;20046;-62
2022/11/24 04:24:57;;;;;;;4.10;1.33;;;9.80;82.30;;;;;;4992492;28;20405;-61
2022/11/24 04:27:23;;;;;;;5.45;2.00;;;9.80;82.20;;;;;;4994911;28;20045;-62
2022/11/24 04:29:49;;;;;;;4.43;1.25;;;9.80;82.20;;;;;;4996540;28;20030;-62
2022/11/24 04:32:16;;;;;;;2.33;1.15;;;9.80;82.10;;;;;;4993148;28;20069;-62
2022/11/24 04:34:41;;;;;;;2.60;0.90;;;9.80;82.00;;;;;;4993705;28;20504;-62
2022/11/24 04:37:07;;;;;;;2.25;1.40;;;9.80;82.00;;;;;;4994162;28;20101;-61
2022/11/24 04:39:33;;;;;;;3.65;1.67;;;9.80;81.90;;;;;;4996140;28;20398;-62
2022/11/24 04:41:59;;;;;;;2.15;1.40;;;9.80;82.00;;;;;;4999570;28;20109;-61
2022/11/24 04:44:24;;;;;;;4.20;1.42;;;9.80;82.00;;;;;;4992153;28;20031;-61
2022/11/24 04:46:50;;;;;;;7.15;1.92;;;9.80;82.10;;;;;;4992425;28;20161;-61
2022/11/24 04:49:16;;;;;;;3.53;1.70;;;9.80;82.10;;;;;;4993569;28;20034;-61
2022/11/24 04:51:42;;;;;;;5.53;1.52;;;9.80;82.10;;;;;;4994299;28;20122;-62
2022/11/24 04:54:10;;;;;;;4.38;1.50;;;9.80;82.20;;;;;;4975984;28;20034;-62
2022/11/24 04:56:36;;;;;;;2.25;1.15;;;9.80;82.30;;;;;;4992476;28;20029;-62
2022/11/24 04:59:01;;;;;;;2.15;1.10;;;9.80;82.30;;;;;;4993506;28;20030;-61
2022/11/24 05:01:27;;;;;;;6.40;1.75;;;9.80;82.20;;;;;;4997512;28;20374;-61
2022/11/24 05:03:54;;;;;;;8.30;1.50;;;9.90;82.10;;;;;;4992277;28;20030;-62
2022/11/24 05:06:20;;;;;;;2.10;1.10;;;9.90;82.00;;;;;;4994450;28;20048;-61
2022/11/24 05:08:47;;;;;;;4.07;1.63;;;9.90;82.10;;;;;;4993734;28;20042;-61
2022/11/24 05:11:13;;;;;;;2.10;1.35;;;9.90;82.70;;;;;;4996707;28;20613;-62
2022/11/24 05:13:39;;;;;;;6.28;2.20;;;9.90;82.10;;;;;;4991660;28;20018;-61
2022/11/24 05:16:05;;;;;;;3.20;1.75;;;9.90;82.10;;;;;;5002712;28;20510;-61
2022/11/24 05:18:30;;;;;;;7.80;2.22;;;9.90;82.10;;;;;;4993195;28;20019;-62
2022/11/24 05:20:57;;;;;;;3.33;1.77;;;9.90;82.00;;;;;;4997231;28;20038;-62
2022/11/24 05:23:23;;;;;;;8.27;2.00;;;10.00;82.00;;;;;;4993095;28;20034;-62
2022/11/24 05:25:50;;;;;;;2.08;1.27;;;10.00;82.00;;;;;;4999182;28;20030;-61
2022/11/24 05:28:16;;;;;;;3.83;0.95;;;10.00;82.00;;;;;;4991981;28;20038;-61
2022/11/24 05:30:45;;;;;;;3.70;2.03;;;10.00;81.90;;;;;;4992506;28;20026;-61
2022/11/24 05:33:17;;;;;;;2.85;1.48;;;10.00;81.90;;;;;;4997419;28;20296;-62
2022/11/24 05:35:50;;;;;;;3.63;0.95;;;10.00;81.90;;;;;;4997363;28;20033;-61
2022/11/24 05:38:16;;;;;;;5.03;1.85;;;10.00;81.80;;;;;;4996882;28;20030;-61
2022/11/24 05:40:42;;;;;;;3.50;1.05;;;10.00;81.80;;;;;;4995184;28;20029;-62
2022/11/24 05:43:15;;;;;;;2.13;0.65;;;10.10;81.70;;;;;;4992205;28;20488;-62
2022/11/24 05:45:42;;;;;;;2.90;0.90;;;10.10;81.50;;;;;;4997740;28;20557;-61
2022/11/24 05:48:11;;;;;;;1.58;0.93;;;10.10;82.10;;;;;;5000841;28;20412;-61
2022/11/24 05:50:37;;;;;;;5.35;1.20;;;10.10;81.60;;;;;;5001579;28;20391;-62
2022/11/24 05:53:10;;;;;;;2.20;1.00;;;10.10;81.50;;;;;;5002950;28;20097;-61
2022/11/24 05:55:36;;;;;;;2.40;1.00;;;10.10;81.50;;;;;;5001944;28;20112;-61
2022/11/24 05:58:07;;;;;;;3.78;1.60;;;10.10;81.50;;;;;;4996281;28;20117;-62
2022/11/24 06:00:34;;;;;;;2.83;1.25;;;10.10;81.50;;;;;;4992550;28;20038;-62
2022/11/24 06:03:00;;;;;;;2.00;1.20;;;10.00;81.50;;;;;;5000379;28;20110;-61
2022/11/24 06:05:27;;;;;;;1.95;1.40;;;10.10;81.60;;;;;;4993396;28;20026;-61
2022/11/24 06:07:53;;;;;;;1.55;0.98;;;10.00;81.70;;;;;;5004891;28;20105;-63
2022/11/24 06:10:22;;;;;;;1.42;1.02;;;10.00;81.70;;;;;;5005952;28;20494;-64
2022/11/24 06:12:48;;;;;;;2.38;0.68;;;10.00;81.70;;;;;;5005379;28;20512;-63
2022/11/24 06:15:14;;;;;;;1.98;0.80;;;10.00;81.60;;;;;;5010266;28;20025;-62
2022/11/24 06:17:40;;;;;;;1.30;0.50;;;10.00;81.70;;;;;;5004833;28;20026;-64
2022/11/24 06:20:07;;;;;;;4.25;1.25;;;9.90;81.60;;;;;;5007921;28;20037;-66
2022/11/24 06:22:33;;;;;;;2.63;0.82;;;9.90;81.70;;;;;;5005431;28;20042;-65
2022/11/24 06:24:59;;;;;;;3.17;1.05;;;9.90;81.70;;;;;;5009342;28;20183;-62
2022/11/24 06:27:24;;;;;;;1.23;0.60;;;9.90;81.80;;;;;;5000120;28;20552;-64
2022/11/24 06:29:50;;;;;;;2.83;1.10;;;9.90;81.80;;;;;;5009426;28;20030;-64
2022/11/24 06:32:16;;;;;;;3.53;0.77;;;9.90;81.70;;;;;;4992326;28;20046;-61
2022/11/24 06:34:42;;;;;;;1.35;0.90;;;9.90;81.80;;;;;;5012024;28;20026;-61
2022/11/24 06:37:08;;;;;;;1.63;0.63;;;10.00;81.80;;;;;;5005098;28;20034;-61
2022/11/24 06:39:33;;;;;;;3.85;0.82;;;9.90;81.80;;;;;;5004731;28;20101;-61
2022/11/24 06:41:59;;;;;;;2.15;0.95;;;9.90;82.40;;;;;;4992330;28;20368;-61
2022/11/24 06:44:25;;;;;;;2.58;1.15;;;9.90;82.50;;;;;;4996034;28;20035;-60
2022/11/24 06:46:51;;;;;;;1.27;1.10;;;9.90;82.00;;;;;;4998448;28;20061;-60
2022/11/24 06:49:17;;;;;;;2.90;0.80;;;9.90;82.00;;;;;;5007435;28;20096;-60
2022/11/24 06:51:42;;;;;;;1.67;0.80;;;9.90;82.10;;;;;;5001373;28;20026;-60
2022/11/24 06:54:12;;;;;;;1.23;0.68;;;9.90;82.40;;;;;;5006875;28;20038;-59
2022/11/24 06:56:38;;;;;;;0.88;0.47;;;9.90;82.60;;;;;;4994884;28;20127;-60
2022/11/24 06:59:04;;;;;;;0.88;0.65;;;9.90;82.60;;;;;;5006359;28;20465;-60
2022/11/24 07:01:31;;;;;;;0.30;0.30;;;9.90;82.60;;;;;;4993837;28;20030;-61
2022/11/24 07:03:57;;;;;;;4.03;1.42;;;9.90;82.70;;;;;;4993092;28;20034;-61
2022/11/24 07:06:24;;;;;;;3.40;0.50;;;9.90;83.00;;;;;;5005140;28;20135;-61
2022/11/24 07:08:50;;;;;;;0.90;0.77;;;9.80;83.00;;;;;;4994654;28;20025;-61
2022/11/24 07:11:19;;;;;;;3.15;0.60;;;9.80;83.20;;;;;;4996750;28;20482;-59
2022/11/24 07:13:45;;;;;;;0.57;0.57;;;9.80;83.50;;;;;;4995320;28;20040;-59
2022/11/24 07:16:13;;;;;;;1.45;0.82;;;9.80;83.50;;;;;;5003695;28;20029;-60
2022/11/24 07:18:39;;;;;;;1.25;0.90;;;9.80;83.40;;;;;;4994768;28;20092;-60
2022/11/24 07:21:05;;;;;;;2.50;1.10;;;9.80;83.50;;;;;;4990893;28;20081;-60
2022/11/24 07:23:30;;;;;;;0.98;0.88;;;9.80;83.50;;;;;;4999920;28;20030;-60
2022/11/24 07:25:57;;;;;;;1.23;1.08;;;9.80;83.80;;;;;;4997494;28;20125;-61
2022/11/24 07:28:23;;;;;;;5.18;1.23;;;9.80;83.70;;;;;;4996029;28;20556;-60
2022/11/24 07:30:49;;;;;;;1.83;1.40;;;9.80;83.80;;;;;;4996822;28;20057;-61
2022/11/24 07:33:17;;;;;;;2.22;0.95;;;9.90;83.70;;;;;;5000206;28;20056;-61
2022/11/24 07:35:44;;;;;;;1.23;1.13;;;9.90;83.60;;;;;;5000819;28;20412;-62
2022/11/24 07:38:11;;;;;;;5.95;1.52;;;9.90;83.70;;;;;;5002775;28;20438;-60
2022/11/24 07:40:36;;;;;;;1.17;1.00;;;9.90;83.70;;;;;;4995162;28;20030;-60
2022/11/24 07:43:02;;;;;;;1.63;1.30;;;9.90;83.60;;;;;;4995258;28;20385;-59
2022/11/24 07:45:28;;;;;;;2.55;1.20;;;9.90;83.60;;;;;;5029044;28;20084;-59
2022/11/24 07:47:53;;;;;;;6.63;1.77;;;9.90;83.70;;;;;;5004182;28;20113;-59
2022/11/24 07:50:19;;;;;;;1.20;0.77;;;9.90;83.80;;;;;;5004488;28;20030;-60
2022/11/24 07:52:45;;;;;;;2.70;1.52;;;9.90;83.70;;;;;;4994032;28;20038;-59
2022/11/24 07:55:10;;;;;;;1.60;1.27;;;9.90;83.80;;;;;;5022752;28;20485;-59
2022/11/24 07:57:36;;;;;;;1.98;0.85;;;9.90;83.90;;;;;;4991725;28;20388;-61
2022/11/24 08:00:04;;;;;;;2.83;1.35;;;9.90;83.90;;;;;;4987987;28;20023;-62
2022/11/24 08:02:31;;;;;;;7.10;1.35;;;9.90;83.90;;;;;;4987634;28;20029;-61
2022/11/24 08:04:56;;;;;;;2.08;1.50;;;9.90;83.90;;;;;;5005095;28;20038;-61
2022/11/24 08:07:22;;;;;;;1.83;1.17;;;10.00;83.90;;;;;;4993410;28;20081;-60
2022/11/24 08:09:51;;;;;;;2.38;1.35;;;10.00;83.80;;;;;;5004423;28;20027;-60
2022/11/24 08:12:21;;;;;;;3.28;2.17;;;10.00;84.30;;;;;;4995818;28;20049;-60
2022/11/24 08:14:48;;;;;;;2.75;1.70;;;10.10;83.70;;;;;;5000921;28;20057;-61
2022/11/24 08:17:15;;;;;;;3.15;1.77;;;10.10;83.60;;;;;;4998738;28;20077;-61
2022/11/24 08:19:40;;;;;;;2.28;1.52;;;10.10;83.50;;;;;;4996932;28;20539;-61
2022/11/24 08:22:06;;;;;;;3.22;1.85;;;10.10;83.50;;;;;;5003105;28;20054;-62
2022/11/24 08:24:32;;;;;;;3.72;1.60;;;10.10;83.50;;;;;;5028447;28;20077;-61
2022/11/24 08:26:58;;;;;;;3.08;1.65;;;10.00;83.60;;;;;;5001994;28;20367;-62
2022/11/24 08:29:28;;;;;;;4.68;1.77;;;10.00;83.70;;;;;;4994068;28;20030;-61
2022/11/24 08:31:56;;;;;;;1.73;1.48;;;10.00;83.80;;;;;;5003562;28;20465;-60
2022/11/24 08:34:22;;;;;;;4.60;1.95;;;10.00;83.90;;;;;;4992421;28;20113;-61
2022/11/24 08:36:48;;;;;;;7.25;2.00;;;10.10;83.90;;;;;;4993210;28;20026;-61
2022/11/24 08:39:14;;;;;;;3.40;1.60;;;10.10;83.90;;;;;;4995720;28;20441;-62
2022/11/24 08:41:40;;;;;;;3.83;2.25;;;10.10;84.00;;;;;;4992468;28;20029;-62
2022/11/24 08:44:07;;;;;;;3.13;1.83;;;10.20;83.90;;;;;;4987654;28;20049;-62
2022/11/24 08:46:33;;;;;;;3.63;1.50;;;10.20;83.90;;;;;;4990259;28;20038;-62
2022/11/24 08:48:58;;;;;;;2.35;1.38;;;10.20;83.90;;;;;;5024540;28;20034;-61
2022/11/24 08:51:26;;;;;;;4.82;1.77;;;10.20;84.00;;;;;;4987865;28;20033;-61
2022/11/24 08:54:00;;;;;;;3.72;1.55;;;10.20;84.10;;;;;;4991866;28;20466;-61
2022/11/24 08:56:27;;;;;;;2.22;1.50;;;10.20;84.20;;;;;;4993467;28;20045;-61
2022/11/24 08:58:53;;;;;;;1.77;1.10;;;10.10;84.20;;;;;;5025056;28;20022;-61
2022/11/24 09:01:19;;;;;;;3.10;1.52;;;10.20;84.20;;;;;;4992433;28;20058;-61
2022/11/24 09:03:47;;;;;;;2.95;1.48;;;10.20;84.00;;;;;;4996878;28;20772;-61
2022/11/24 09:06:13;;;;;;;1.13;1.00;;;10.30;84.10;;;;;;4994231;28;20022;-61
2022/11/24 09:08:39;;;;;;;6.80;1.70;;;10.30;84.80;;;;;;4993435;28;20038;-61
2022/11/24 09:11:10;;;;;;;5.70;2.35;;;10.30;84.10;;;;;;4993111;28;20038;-60
2022/11/24 09:13:37;;;;;;;2.22;1.30;;;10.30;84.10;;;;;;4992078;28;20031;-61
2022/11/24 09:16:27;;;;;;;1.90;0.88;;;10.30;84.20;;;;;;4993835;28;20096;-60
2022/11/24 09:18:59;;;;;;;6.07;1.98;;;10.20;84.10;;;;;;4992540;28;20307;-60
2022/11/24 09:21:24;;;;;;;3.63;1.77;;;10.20;84.10;;;;;;4992677;28;20042;-60
2022/11/24 09:23:51;;;;;;;2.63;1.55;;;10.20;84.20;;;;;;4993070;28;20041;-59
2022/11/24 09:26:21;;;;;;;2.15;1.23;;;10.20;84.30;;;;;;4994181;28;20080;-60
2022/11/24 09:28:47;;;;;;;5.13;1.52;;;10.20;84.40;;;;;;4992261;28;20112;-60
2022/11/24 09:31:16;;;;;;;3.10;1.35;;;10.20;84.50;;;;;;4996044;28;20489;-60
2022/11/24 09:33:43;;;;;;;2.47;1.30;;;10.30;84.50;;;;;;4994008;28;20026;-60
2022/11/24 09:36:08;;;;;;;2.63;1.52;;;10.40;84.30;;;;;;5000376;28;20038;-60
2022/11/24 09:38:35;;;;;;;2.15;1.15;;;10.50;84.00;;;;;;5029227;28;20026;-60
2022/11/24 09:41:24;;;;;;;2.33;1.20;;;10.60;83.80;;;;;;4989224;28;20015;-61
2022/11/24 09:43:50;;;;;;;7.63;1.77;;;10.60;83.70;;;;;;4991775;28;20126;-59
2022/11/24 09:46:26;;;;;;;2.05;1.17;;;10.60;83.90;;;;;;5001111;28;20480;-59
2022/11/24 09:48:55;;;;;;;2.45;0.88;;;10.50;83.90;;;;;;4989118;28;20125;-59
2022/11/24 09:51:27;;;;;;;4.90;1.55;;;10.50;84.00;;;;;;5000318;28;20061;-59
2022/11/24 09:54:10;;;;;;;4.43;1.65;;;10.60;83.90;;;;;;5005848;28;20413;-59
2022/11/24 09:56:37;;;;;;;;;;;10.70;83.70;;;;;;4994913;28;20026;-59
2022/11/24 09:59:17;;;;;;;3.10;1.20;;;10.80;83.80;;;;;;4990847;28;19953;-60
2022/11/24 10:01:44;;;;;;;4.25;1.60;;;10.90;83.50;;;;;;4993227;28;20024;-62
2022/11/24 10:04:24;;;;;;;2.38;0.98;;;11.00;83.20;;;;;;4999696;28;20022;-59
2022/11/24 10:06:56;;;;;;;5.30;2.05;;;11.10;82.90;;;;;;5001631;28;20515;-60
2022/11/24 10:09:52;;;;;;;2.28;0.98;;;11.20;82.60;;;;;;5001124;28;20026;-59
2022/11/24 10:12:29;;;;;;;1.55;1.00;;;11.40;82.70;;;;;;4997735;28;20108;-60
2022/11/24 10:15:32;;;;;;;10.30;1.60;;;12.00;82.20;;;;;;5028508;28;20022;-59
2022/11/24 10:18:22;;;;;;;2.90;1.35;;;13.20;79.00;;;;;;4998287;28;20517;-60
2022/11/24 10:20:51;;;;;;;1.88;1.17;;;15.20;72.80;;;;;;4999706;28;20045;-59
2022/11/24 10:23:42;;;;;;;4.43;1.10;;;16.20;68.60;;;;;;5004337;28;20060;-59
2022/11/24 10:26:18;;;;;;;2.83;1.20;;;17.40;65.90;;;;;;5029594;28;20044;-61
2022/11/24 10:28:49;;;;;;;0.60;0.60;;;18.40;64.10;;;;;;4992460;28;20022;-60
2022/11/24 10:31:36;;;;;;;1.27;0.77;;;19.20;62.30;;;;;;4983871;28;20038;-61
2022/11/24 10:34:33;;;;;;;10.88;1.42;;;19.70;59.80;;;;;;4990070;28;20504;-61
2022/11/24 10:37:04;;;;;;;5.80;1.13;;;19.20;60.20;;;;;;4978123;28;20045;-60
2022/11/24 10:40:06;;;;;;;3.92;0.93;;;18.90;60.90;;;;;;4995501;28;20106;-60
2022/11/24 10:42:36;;;;;;;2.80;0.90;;;18.40;60.40;;;;;;4987452;28;20451;-60
2022/11/24 10:45:21;;;;;;;4.50;1.55;;;18.00;61.70;;;;;;4986682;28;20026;-60
2022/11/24 10:47:47;;;;;;;2.17;1.15;;;18.00;62.30;;;;;;4993827;28;20044;-60
2022/11/24 10:50:22;;;;;;;3.60;0.85;;;18.40;61.70;;;;;;4990540;28;20160;-60
2022/11/24 10:53:29;;;;;;;3.20;0.95;;;19.20;58.00;;;;;;4989667;28;20564;-60
2022/11/24 10:55:55;;;;;;;3.03;1.30;;;19.50;56.20;;;;;;4991003;28;20026;-61
2022/11/24 10:58:27;;;;;;;1.00;1.00;;;19.10;57.00;;;;;;4997917;28;20037;-60
2022/11/24 11:00:54;;;;;;;2.00;1.40;;;19.00;57.50;;;;;;4992168;28;20144;-61
2022/11/24 11:03:25;;;;;;;2.65;1.00;;;18.90;57.60;;;;;;4992672;28;20778;-60
2022/11/24 11:06:07;;;;;;;11.47;0.90;;;18.50;58.00;;;;;;4995548;28;20029;-60
2022/11/24 11:08:33;;;;;;;8.73;1.10;;;18.50;58.30;;;;;;4992043;28;20108;-60
2022/11/24 11:11:18;;;;;;;3.20;1.13;;;18.00;58.30;;;;;;4994996;28;20054;-60
2022/11/24 11:13:59;;;;;;;1.85;0.75;;;18.00;59.90;;;;;;4992768;28;20041;-61
2022/11/24 11:16:26;;;;;;;2.65;1.25;;;19.30;58.40;;;;;;4989157;28;20023;-61
2022/11/24 11:18:52;;;;;;;1.25;1.00;;;20.20;55.10;;;;;;4995625;28;20073;-61
2022/11/24 11:21:44;;;;;;;2.20;0.80;;;20.90;53.60;;;;;;4992739;28;20054;-61
2022/11/24 11:24:17;;;;;;;6.45;1.35;;;21.50;52.20;;;;;;4993602;28;20077;-60
2022/11/24 11:26:43;;;;;;;1.67;1.15;;;21.40;49.80;;;;;;4996523;28;20021;-61
2022/11/24 11:29:18;;;;;;;3.05;0.70;;;21.00;51.90;;;;;;4994717;28;20465;-60
2022/11/24 11:32:00;;;;;;;1.85;0.82;;;21.40;51.50;;;;;;4995025;28;20366;-60
2022/11/24 11:34:29;;;;;;;1.15;0.82;;;22.10;51.10;;;;;;4991142;28;20034;-60
2022/11/24 11:36:55;;;;;;;3.15;0.57;;;22.80;50.10;;;;;;4993979;28;20029;-60
2022/11/24 11:39:22;;;;;;;3.13;1.23;;;22.60;49.20;;;;;;5010237;28;20397;-60
2022/11/24 11:41:50;;;;;;;2.10;0.63;;;22.70;49.70;;;;;;4996631;28;20466;-60
2022/11/24 11:44:53;;;;;;;5.13;0.95;;;23.10;47.20;;;;;;5000893;28;20026;-61
2022/11/24 11:47:25;;;;;;;3.80;1.40;;;23.00;48.10;;;;;;5004564;28;20041;-60
2022/11/24 11:49:52;;;;;;;6.13;1.60;;;23.60;47.80;;;;;;5007174;28;20069;-61
2022/11/24 11:52:26;;;;;;;1.05;0.50;;;24.00;46.50;;;;;;5004031;28;20092;-61
2022/11/24 11:55:19;;;;;;;2.13;1.10;;;24.20;45.90;;;;;;5003887;28;20037;-61
2022/11/24 11:57:58;;;;;;;1.30;0.80;;;24.20;45.20;;;;;;4997404;28;20064;-61
2022/11/24 12:00:24;;;;;;;3.00;1.25;;;24.00;45.20;;;;;;5009257;28;20373;-61
2022/11/24 12:03:27;;;;;;;2.35;1.15;;;24.30;45.20;;;;;;4998081;28;20029;-61
2022/11/24 12:06:02;;;;;;;3.20;0.95;;;24.60;44.10;;;;;;4990256;28;20096;-62
2022/11/24 12:09:11;;;;;;;2.75;1.13;;;25.20;44.60;;;;;;4998287;28;20030;-65
2022/11/24 12:11:48;;;;;;;5.80;1.27;;;25.80;43.10;;;;;;4984307;28;20538;-61
2022/11/24 12:14:50;;;;;;;2.55;0.90;;;25.90;42.80;;;;;;4996349;28;20053;-63
2022/11/24 12:17:54;;;;;;;1.77;1.10;;;26.00;42.50;;;;;;4995114;28;20033;-63
2022/11/24 12:20:38;;;;;;;4.03;0.75;;;26.40;42.30;;;;;;4999195;28;21998;-64
2022/11/24 12:23:15;;;;;;;2.15;1.10;;;26.60;41.60;;;;;;5006332;28;20099;-62
2022/11/24 12:26:07;;;;;;;4.47;1.10;;;26.00;41.70;;;;;;4996231;28;20054;-62
2022/11/24 12:28:47;;;;;;;7.07;1.70;;;24.90;42.40;;;;;;5001637;28;20554;-62
2022/11/24 12:31:38;;;;;;;2.90;1.17;;;23.30;44.30;;;;;;5003567;28;20034;-64
2022/11/24 12:34:18;;;;;;;1.30;1.13;;;21.80;46.70;;;;;;4996391;28;20022;-63
2022/11/24 12:37:32;;;;;;;2.53;1.33;;;21.00;48.70;;;;;;4992617;28;20033;-63
2022/11/24 12:40:23;;;;;;;2.45;1.42;;;20.80;49.10;;;;;;4991046;28;20567;-63
2022/11/24 12:43:13;;;;;;;1.67;1.10;;;20.40;49.10;;;;;;4994605;28;20034;-63
2022/11/24 12:46:08;;;;;;;2.67;0.93;;;19.80;51.00;;;;;;4986768;28;20026;-63
2022/11/24 12:49:26;;;;;;;7.82;1.23;;;19.70;51.60;;;;;;5003147;28;20034;-63
2022/11/24 12:52:04;;;;;;;3.33;0.75;;;19.50;51.80;;;;;;5003129;28;20034;-62
2022/11/24 12:54:39;;;;;;;4.72;0.77;;;19.40;52.80;;;;;;4994124;28;20095;-63
2022/11/24 12:57:11;;;;;;;2.88;1.20;;;19.40;52.40;;;;;;4997325;28;20035;-62
2022/11/24 12:59:46;;;;;;;3.63;0.93;;;19.50;52.60;;;;;;5007764;28;20030;-62
2022/11/24 13:02:36;;;;;;;1.10;1.00;;;19.60;52.20;;;;;;5006572;28;20026;-62
2022/11/24 13:05:37;;;;;;;7.15;1.23;;;19.70;52.30;;;;;;5006386;28;20145;-61
2022/11/24 13:08:05;;;;;;;1.95;1.30;;;19.60;51.80;;;;;;4986497;28;21051;-61